Time;durP1;ratioP1;P1;durP2;ratioP2;P2;SDS_P1;SDS_P2;PMS_P1;PMS_P2;Temp;Humidity;BMP_temperature;BMP_pressure;BME280_temperature;BME280_humidity;BME280_pressure;Samples;Min_cycle;Max_cycle;Signal;HPM_P1;HPM_P2
2021/07/25 00:01:30;;;;;;;4.50;4.10;;;21.20;93.90;;;;;;5033430;28;20406;-79
2021/07/25 00:03:57;;;;;;;3.97;3.67;;;21.20;93.50;;;;;;5029155;28;21135;-78
2021/07/25 00:06:22;;;;;;;4.78;4.20;;;21.10;94.10;;;;;;5012354;28;20436;-78
2021/07/25 00:08:48;;;;;;;4.23;3.67;;;21.10;94.10;;;;;;5036086;28;20449;-77
2021/07/25 00:11:15;;;;;;;3.77;3.40;;;21.00;94.20;;;;;;5028836;28;20405;-78
2021/07/25 00:13:41;;;;;;;3.72;3.42;;;21.00;94.80;;;;;;5020259;28;20412;-78
2021/07/25 00:16:07;;;;;;;3.38;3.08;;;21.00;94.60;;;;;;5032580;28;20462;-79
2021/07/25 00:18:33;;;;;;;3.83;3.53;;;21.00;94.90;;;;;;5012249;28;20827;-78
2021/07/25 00:20:59;;;;;;;4.17;3.77;;;21.10;95.10;;;;;;5031865;28;20465;-78
2021/07/25 00:23:27;;;;;;;3.90;3.60;;;21.00;95.10;;;;;;5030476;28;20389;-79
2021/07/25 00:25:56;;;;;;;3.67;3.38;;;20.90;96.00;;;;;;5011695;28;20390;-78
2021/07/25 00:28:32;;;;;;;3.42;3.13;;;20.90;96.30;;;;;;5020941;28;20449;-79
2021/07/25 00:31:02;;;;;;;4.15;3.67;;;20.90;97.30;;;;;;5036019;28;20437;-79
2021/07/25 00:33:30;;;;;;;3.90;3.53;;;20.90;97.20;;;;;;5037159;28;20414;-79
2021/07/25 00:35:56;;;;;;;4.25;3.85;;;20.80;97.60;;;;;;5038539;28;20389;-78
2021/07/25 00:38:22;;;;;;;3.65;3.35;;;20.70;97.50;;;;;;5012392;28;20397;-79
2021/07/25 00:40:47;;;;;;;4.10;3.47;;;20.70;97.90;;;;;;5044871;28;20476;-78
2021/07/25 00:43:26;;;;;;;4.30;3.90;;;20.60;99.10;;;;;;5032806;28;20452;-79
2021/07/25 00:45:52;;;;;;;3.47;3.17;;;20.60;98.70;;;;;;5011138;28;20964;-79
2021/07/25 00:48:19;;;;;;;4.72;3.75;;;20.50;99.50;;;;;;5033503;28;20390;-78
2021/07/25 00:50:45;;;;;;;5.47;3.83;;;20.60;99.90;;;;;;5028734;28;20389;-79
2021/07/25 00:53:11;;;;;;;5.93;4.30;;;20.50;99.90;;;;;;5030521;28;20402;-79
2021/07/25 00:55:37;;;;;;;5.03;4.07;;;20.50;99.90;;;;;;5011730;28;20476;-79
2021/07/25 00:58:02;;;;;;;3.88;3.55;;;20.40;99.90;;;;;;5036354;28;20730;-79
2021/07/25 01:00:28;;;;;;;3.45;3.20;;;20.40;99.90;;;;;;5030116;28;20409;-79
2021/07/25 01:03:00;;;;;;;3.77;3.47;;;20.30;99.90;;;;;;5012317;28;20420;-79
2021/07/25 01:05:30;;;;;;;5.03;3.72;;;20.30;99.90;;;;;;5031691;28;20736;-79
2021/07/25 01:08:24;;;;;;;4.05;3.65;;;20.20;99.90;;;;;;5045281;28;20409;-79
2021/07/25 01:10:50;;;;;;;4.05;3.67;;;20.20;99.90;;;;;;5005383;28;20394;-79
2021/07/25 01:13:18;;;;;;;3.80;3.50;;;20.10;99.90;;;;;;5018112;28;20505;-78
2021/07/25 01:15:44;;;;;;;4.57;3.78;;;20.10;99.90;;;;;;5043730;28;20395;-79
2021/07/25 01:18:10;;;;;;;4.03;3.53;;;20.00;99.90;;;;;;4995866;28;20409;-79
2021/07/25 01:20:36;;;;;;;5.73;4.17;;;20.00;99.90;;;;;;5050644;28;20455;-79
2021/07/25 01:23:02;;;;;;;5.78;4.28;;;19.90;99.90;;;;;;5033835;28;20433;-79
2021/07/25 01:25:27;;;;;;;3.97;3.30;;;19.90;99.90;;;;;;5013423;28;20403;-79
2021/07/25 01:28:26;;;;;;;5.93;3.70;;;19.90;99.90;;;;;;5033415;28;20385;-78
2021/07/25 01:30:56;;;;;;;4.13;3.72;;;19.80;99.90;;;;;;5034988;28;20393;-79
2021/07/25 01:33:26;;;;;;;3.92;3.63;;;19.80;99.90;;;;;;5027128;28;20393;-79
2021/07/25 01:35:51;;;;;;;3.90;3.57;;;19.80;99.90;;;;;;5029780;28;20391;-79
2021/07/25 01:38:17;;;;;;;4.13;3.65;;;19.80;99.90;;;;;;5026807;28;20405;-79
2021/07/25 01:40:59;;;;;;;4.47;3.53;;;19.80;99.90;;;;;;5025883;28;21101;-78
2021/07/25 01:43:24;;;;;;;3.37;3.13;;;19.80;99.90;;;;;;5010826;28;20435;-79
2021/07/25 01:45:50;;;;;;;3.42;3.13;;;19.80;99.90;;;;;;5026881;28;20393;-78
2021/07/25 01:48:16;;;;;;;3.90;3.50;;;19.80;99.90;;;;;;5031039;28;20770;-78
2021/07/25 01:50:41;;;;;;;5.43;4.03;;;19.80;99.90;;;;;;5043033;28;20420;-79
2021/07/25 01:53:07;;;;;;;4.30;3.88;;;19.70;99.90;;;;;;5048576;28;20452;-78
2021/07/25 01:55:33;;;;;;;3.53;3.23;;;19.60;99.90;;;;;;5028018;28;20397;-79
2021/07/25 01:57:58;;;;;;;5.05;3.83;;;19.60;99.90;;;;;;5045948;28;20475;-78
2021/07/25 02:00:24;;;;;;;4.50;3.73;;;19.60;99.90;;;;;;5041720;28;20924;-78
2021/07/25 02:02:50;;;;;;;3.83;3.45;;;19.60;99.90;;;;;;5024439;28;20428;-78
2021/07/25 02:05:15;;;;;;;3.40;3.10;;;19.60;99.90;;;;;;5028361;28;20401;-79
2021/07/25 02:07:41;;;;;;;3.90;3.60;;;19.60;99.90;;;;;;5009497;28;20414;-77
2021/07/25 02:10:08;;;;;;;5.18;4.68;;;19.60;99.90;;;;;;5033597;28;20399;-78
2021/07/25 02:12:33;;;;;;;4.25;3.85;;;19.50;99.90;;;;;;5026275;28;20492;-78
2021/07/25 02:14:59;;;;;;;3.80;3.50;;;19.50;99.90;;;;;;5025269;28;20465;-78
2021/07/25 02:17:24;;;;;;;3.80;3.50;;;19.50;99.90;;;;;;5024716;28;20473;-79
2021/07/25 02:19:50;;;;;;;5.07;3.97;;;19.50;99.90;;;;;;5028864;28;20395;-79
2021/07/25 02:22:16;;;;;;;4.07;3.70;;;19.50;99.90;;;;;;5029410;28;20412;-79
2021/07/25 02:24:42;;;;;;;3.72;3.42;;;19.50;99.90;;;;;;5012574;28;20421;-78
2021/07/25 02:27:08;;;;;;;4.30;3.88;;;19.50;99.90;;;;;;5037097;28;20399;-79
2021/07/25 02:29:33;;;;;;;4.88;4.35;;;19.50;99.90;;;;;;5057197;28;20835;-79
2021/07/25 02:31:59;;;;;;;4.53;4.13;;;19.50;99.90;;;;;;5045489;28;20921;-79
2021/07/25 02:34:25;;;;;;;3.85;3.55;;;19.50;99.90;;;;;;5030271;28;20405;-78
2021/07/25 02:36:50;;;;;;;4.13;3.73;;;19.50;99.90;;;;;;5064450;28;20513;-79
2021/07/25 02:39:16;;;;;;;4.40;4.00;;;19.50;99.90;;;;;;5038076;28;20394;-79
2021/07/25 02:41:42;;;;;;;4.77;4.27;;;19.50;99.90;;;;;;5021043;28;20484;-78
2021/07/25 02:44:08;;;;;;;4.18;3.78;;;19.50;99.90;;;;;;5032330;28;20410;-79
2021/07/25 02:46:34;;;;;;;4.40;4.00;;;19.50;99.90;;;;;;5061333;28;21149;-79
2021/07/25 02:49:00;;;;;;;4.30;3.90;;;19.50;99.90;;;;;;5050973;28;20435;-79
2021/07/25 02:51:26;;;;;;;4.95;4.55;;;19.50;99.90;;;;;;5032208;28;20426;-79
2021/07/25 02:53:51;;;;;;;5.10;4.60;;;19.50;99.90;;;;;;5028969;28;20518;-79
2021/07/25 02:56:17;;;;;;;6.22;4.45;;;19.50;99.90;;;;;;5046588;28;20856;-79
2021/07/25 02:58:43;;;;;;;4.37;4.03;;;19.50;99.90;;;;;;5035246;28;20425;-79
2021/07/25 03:01:15;;;;;;;5.50;4.32;;;19.50;99.90;;;;;;5049898;28;20575;-78
2021/07/25 03:03:40;;;;;;;4.80;4.22;;;19.50;99.90;;;;;;5016544;28;20863;-79
2021/07/25 03:06:06;;;;;;;4.30;3.90;;;19.50;99.90;;;;;;5041516;28;20394;-78
2021/07/25 03:08:32;;;;;;;4.50;4.10;;;19.50;99.90;;;;;;5031045;28;20767;-79
2021/07/25 03:10:58;;;;;;;4.75;4.28;;;19.50;99.90;;;;;;5023997;28;20406;-79
2021/07/25 03:13:23;;;;;;;12.98;4.65;;;19.50;99.90;;;;;;5051393;28;20465;-79
2021/07/25 03:15:49;;;;;;;6.20;4.77;;;19.50;99.90;;;;;;5027552;28;20394;-80
2021/07/25 03:18:14;;;;;;;4.40;4.00;;;19.50;99.90;;;;;;5031654;28;20412;-79
2021/07/25 03:20:40;;;;;;;4.90;4.20;;;19.50;99.90;;;;;;5037657;28;20397;-80
2021/07/25 03:23:06;;;;;;;5.43;4.15;;;19.50;99.90;;;;;;5053288;28;20398;-78
2021/07/25 03:25:31;;;;;;;4.73;4.33;;;19.50;99.90;;;;;;5036577;28;20472;-78
2021/07/25 03:27:57;;;;;;;5.03;4.57;;;19.50;99.90;;;;;;5042467;28;20399;-79
2021/07/25 03:30:23;;;;;;;4.68;4.22;;;19.50;99.90;;;;;;5033416;28;20484;-80
2021/07/25 03:32:48;;;;;;;4.33;3.93;;;19.50;99.90;;;;;;5046791;28;20387;-79
2021/07/25 03:35:14;;;;;;;4.03;3.72;;;19.60;99.90;;;;;;5065019;28;20760;-80
2021/07/25 03:37:43;;;;;;;5.20;4.80;;;19.60;99.90;;;;;;5038705;28;20505;-79
2021/07/25 03:40:09;;;;;;;4.35;3.95;;;19.60;99.90;;;;;;5033474;28;20393;-79
2021/07/25 03:42:35;;;;;;;4.90;4.07;;;19.60;99.90;;;;;;5065357;28;20411;-79
2021/07/25 03:45:01;;;;;;;4.90;4.50;;;19.60;99.90;;;;;;5053388;28;20426;-79
2021/07/25 03:47:26;;;;;;;4.87;4.47;;;19.60;99.90;;;;;;5047594;28;20404;-79
2021/07/25 03:49:52;;;;;;;4.70;4.30;;;19.60;99.90;;;;;;5033245;28;20412;-78
2021/07/25 03:52:17;;;;;;;5.47;4.80;;;19.60;99.90;;;;;;5032070;28;20385;-79
2021/07/25 03:54:43;;;;;;;5.67;4.60;;;19.60;99.90;;;;;;5038084;28;20389;-79
2021/07/25 03:57:09;;;;;;;4.50;3.95;;;19.60;99.90;;;;;;5029018;28;20398;-78
2021/07/25 03:59:36;;;;;;;4.28;3.88;;;19.60;99.90;;;;;;5034241;28;20401;-78
2021/07/25 04:02:03;;;;;;;6.25;4.30;;;19.60;99.90;;;;;;5042798;28;20453;-78
2021/07/25 04:04:28;;;;;;;3.78;3.38;;;19.60;99.90;;;;;;5036234;28;20393;-78
2021/07/25 04:06:54;;;;;;;6.18;4.18;;;19.70;99.90;;;;;;5044829;28;20639;-78
2021/07/25 04:09:19;;;;;;;4.93;3.60;;;19.70;99.90;;;;;;5066376;28;20485;-77
2021/07/25 04:11:52;;;;;;;3.93;3.53;;;19.70;99.90;;;;;;5054300;28;20407;-78
2021/07/25 04:14:18;;;;;;;4.38;3.97;;;19.70;99.90;;;;;;5041293;28;20398;-78
2021/07/25 04:16:43;;;;;;;5.25;4.32;;;19.80;99.90;;;;;;5048519;28;20994;-78
2021/07/25 04:19:09;;;;;;;4.20;3.87;;;19.80;99.90;;;;;;5026878;28;20478;-78
2021/07/25 04:21:35;;;;;;;5.93;4.65;;;19.80;99.90;;;;;;5028784;28;20417;-78
2021/07/25 04:24:01;;;;;;;5.13;4.30;;;19.80;99.90;;;;;;5036904;28;20407;-78
2021/07/25 04:26:27;;;;;;;4.93;4.47;;;19.90;99.90;;;;;;5046060;28;20386;-77
2021/07/25 04:28:53;;;;;;;4.30;3.90;;;19.80;99.90;;;;;;5044354;28;20774;-78
2021/07/25 04:31:18;;;;;;;4.27;3.87;;;19.80;99.90;;;;;;5029022;28;20423;-78
2021/07/25 04:33:45;;;;;;;4.20;3.80;;;19.90;99.90;;;;;;5038041;28;20481;-78
2021/07/25 04:36:13;;;;;;;4.60;4.20;;;19.90;99.90;;;;;;5022110;28;20390;-78
2021/07/25 04:38:39;;;;;;;4.43;4.03;;;19.90;99.90;;;;;;5037134;28;20421;-78
2021/07/25 04:41:10;;;;;;;4.90;4.40;;;19.90;99.90;;;;;;5030508;28;20860;-77
2021/07/25 04:43:36;;;;;;;4.50;4.10;;;20.00;99.90;;;;;;5037624;28;20904;-78
2021/07/25 04:46:22;;;;;;;5.93;4.82;;;19.90;99.90;;;;;;5011853;28;20471;-79
2021/07/25 04:49:13;;;;;;;4.70;4.30;;;19.90;99.90;;;;;;5027810;28;20409;-78
2021/07/25 04:51:39;;;;;;;5.35;4.47;;;20.00;99.90;;;;;;5029962;28;20466;-77
2021/07/25 04:54:07;;;;;;;4.88;4.47;;;20.00;99.90;;;;;;5045608;28;20410;-78
2021/07/25 04:56:39;;;;;;;4.97;4.47;;;20.00;99.90;;;;;;5047009;28;20403;-78
2021/07/25 04:59:04;;;;;;;5.00;4.53;;;20.00;99.90;;;;;;5057585;28;20781;-78
2021/07/25 05:01:32;;;;;;;6.43;4.63;;;20.10;99.90;;;;;;5011463;28;20405;-78
2021/07/25 05:04:00;;;;;;;4.82;4.40;;;20.10;99.90;;;;;;5035631;28;20490;-78
2021/07/25 05:06:26;;;;;;;4.63;4.20;;;20.10;99.90;;;;;;5038352;28;20400;-78
2021/07/25 05:08:51;;;;;;;5.28;4.78;;;20.10;99.90;;;;;;5031651;28;20470;-78
2021/07/25 05:11:57;;;;;;;5.72;4.60;;;20.20;99.90;;;;;;5011053;28;20795;-78
2021/07/25 05:14:30;;;;;;;4.95;4.45;;;20.20;99.90;;;;;;5039535;28;20404;-78
2021/07/25 05:17:21;;;;;;;5.13;4.72;;;20.20;99.90;;;;;;5033743;28;20385;-78
2021/07/25 05:20:04;;;;;;;10.80;5.03;;;20.20;99.90;;;;;;5040618;28;20917;-78
2021/07/25 05:22:38;;;;;;;5.88;4.32;;;20.30;99.90;;;;;;5037642;28;20411;-78
2021/07/25 05:25:07;;;;;;;4.93;4.43;;;20.30;99.90;;;;;;5053224;28;20403;-78
2021/07/25 05:27:45;;;;;;;5.43;4.65;;;20.30;99.90;;;;;;5055300;28;20870;-77
2021/07/25 05:30:15;;;;;;;6.50;5.55;;;20.30;99.90;;;;;;5026664;28;20478;-77
2021/07/25 05:32:40;;;;;;;5.13;4.63;;;20.20;99.90;;;;;;5053439;28;20895;-79
2021/07/25 05:35:07;;;;;;;5.47;4.78;;;20.20;99.90;;;;;;5037389;28;20396;-78
2021/07/25 05:37:32;;;;;;;5.82;5.30;;;20.30;99.90;;;;;;5043344;28;20403;-77
2021/07/25 05:39:58;;;;;;;5.20;4.60;;;20.30;99.90;;;;;;5028773;28;20488;-78
2021/07/25 05:42:24;;;;;;;11.73;5.53;;;20.40;99.90;;;;;;5057679;28;20400;-78
2021/07/25 05:44:49;;;;;;;5.50;5.00;;;20.40;99.90;;;;;;5039856;28;20401;-79
2021/07/25 05:47:15;;;;;;;5.40;4.90;;;20.50;99.90;;;;;;5008306;28;20399;-78
2021/07/25 05:49:41;;;;;;;6.43;4.53;;;20.60;99.90;;;;;;5020677;28;20488;-78
2021/07/25 05:52:07;;;;;;;5.63;4.50;;;20.70;99.90;;;;;;5045166;28;20761;-78
2021/07/25 05:54:32;;;;;;;5.22;4.72;;;20.80;99.90;;;;;;5051706;28;20458;-78
2021/07/25 05:56:58;;;;;;;4.97;4.40;;;20.80;99.90;;;;;;5045172;28;20394;-78
2021/07/25 05:59:24;;;;;;;5.50;4.83;;;20.90;99.90;;;;;;5029553;28;20393;-78
2021/07/25 06:01:49;;;;;;;6.55;4.78;;;21.00;99.90;;;;;;5034771;28;20440;-77
2021/07/25 06:04:15;;;;;;;5.90;5.27;;;21.10;99.90;;;;;;5035156;28;20858;-78
2021/07/25 06:06:41;;;;;;;7.07;5.15;;;21.20;99.90;;;;;;5045824;28;20397;-78
2021/07/25 06:09:07;;;;;;;6.18;4.78;;;21.20;99.90;;;;;;5057867;28;20918;-77
2021/07/25 06:11:33;;;;;;;5.25;4.75;;;21.20;99.90;;;;;;5050463;28;20424;-78
2021/07/25 06:13:58;;;;;;;5.07;4.57;;;21.20;99.90;;;;;;5049059;28;20483;-78
2021/07/25 06:16:24;;;;;;;5.40;4.90;;;21.30;99.90;;;;;;5028618;28;20766;-78
2021/07/25 06:18:50;;;;;;;5.97;5.37;;;21.50;99.90;;;;;;5021530;28;20413;-77
2021/07/25 06:21:19;;;;;;;5.97;4.97;;;21.50;99.90;;;;;;5034889;28;20839;-78
2021/07/25 06:23:48;;;;;;;6.95;5.60;;;21.60;99.90;;;;;;5044940;28;20401;-79
2021/07/25 06:26:14;;;;;;;5.57;5.07;;;21.70;99.90;;;;;;5043566;28;20427;-79
2021/07/25 06:28:39;;;;;;;5.78;5.18;;;21.80;99.90;;;;;;5033093;28;21070;-78
2021/07/25 06:31:05;;;;;;;5.05;4.57;;;21.90;99.90;;;;;;5014463;28;20459;-79
2021/07/25 06:33:31;;;;;;;5.10;4.30;;;22.00;99.90;;;;;;5047632;28;20417;-79
2021/07/25 06:35:57;;;;;;;6.05;5.22;;;22.20;99.90;;;;;;5043516;28;20414;-78
2021/07/25 06:38:23;;;;;;;5.73;5.23;;;22.30;99.90;;;;;;5032025;28;20912;-77
2021/07/25 06:40:55;;;;;;;6.85;5.57;;;22.40;99.90;;;;;;5031770;28;20399;-78
2021/07/25 06:43:21;;;;;;;5.55;5.05;;;22.50;99.90;;;;;;5061036;28;20392;-78
2021/07/25 06:45:52;;;;;;;5.70;4.90;;;22.60;99.90;;;;;;5053136;28;20738;-79
2021/07/25 06:48:22;;;;;;;7.50;5.60;;;22.70;99.90;;;;;;5021744;28;20400;-78
2021/07/25 06:50:49;;;;;;;6.13;5.53;;;22.80;99.90;;;;;;5039985;28;20399;-78
2021/07/25 06:53:16;;;;;;;4.50;4.20;;;22.90;99.90;;;;;;5016063;28;20399;-78
2021/07/25 06:55:42;;;;;;;5.80;5.20;;;23.10;99.90;;;;;;5048427;28;20459;-79
2021/07/25 06:58:07;;;;;;;7.35;5.78;;;23.20;99.90;;;;;;5030123;28;20399;-79
2021/07/25 07:00:34;;;;;;;5.13;4.63;;;23.10;99.90;;;;;;5031275;28;20463;-79
2021/07/25 07:03:00;;;;;;;5.87;5.10;;;23.10;99.90;;;;;;5027921;28;20399;-78
2021/07/25 07:05:35;;;;;;;6.18;5.55;;;23.00;99.90;;;;;;5056677;28;20414;-78
2021/07/25 07:08:05;;;;;;;6.20;5.55;;;23.10;99.90;;;;;;5051148;28;20387;-78
2021/07/25 07:10:45;;;;;;;6.50;5.47;;;23.00;99.90;;;;;;5048522;28;20408;-78
2021/07/25 07:13:11;;;;;;;5.50;4.97;;;23.10;99.90;;;;;;5015445;28;20389;-78
2021/07/25 07:15:39;;;;;;;6.45;5.45;;;23.20;99.90;;;;;;5048358;28;20829;-78
2021/07/25 07:18:04;;;;;;;6.22;5.63;;;23.20;99.90;;;;;;5052118;28;20393;-78
2021/07/25 07:20:30;;;;;;;5.57;5.07;;;23.30;99.90;;;;;;5014679;28;20406;-77
2021/07/25 07:23:02;;;;;;;5.40;4.90;;;23.30;99.90;;;;;;5048254;28;20412;-78
2021/07/25 07:25:29;;;;;;;5.57;5.07;;;23.50;99.90;;;;;;5050021;28;20520;-76
2021/07/25 07:27:55;;;;;;;6.90;5.63;;;23.60;99.90;;;;;;5040756;28;20403;-77
2021/07/25 07:30:21;;;;;;;7.00;5.22;;;23.70;99.90;;;;;;5069811;28;20392;-78
2021/07/25 07:32:47;;;;;;;5.88;5.20;;;23.80;99.90;;;;;;5053421;28;20885;-77
2021/07/25 07:35:13;;;;;;;5.63;5.13;;;23.80;99.90;;;;;;5048749;28;20397;-77
2021/07/25 07:37:39;;;;;;;4.72;4.30;;;23.80;99.90;;;;;;5032336;28;20401;-77
2021/07/25 07:40:06;;;;;;;5.53;5.03;;;23.90;99.90;;;;;;5023123;28;20393;-77
2021/07/25 07:42:31;;;;;;;6.03;5.30;;;24.10;99.90;;;;;;5040731;28;20450;-77
2021/07/25 07:44:57;;;;;;;6.25;5.20;;;24.30;99.90;;;;;;5051369;28;20895;-77
2021/07/25 07:47:23;;;;;;;5.43;4.70;;;24.40;99.90;;;;;;5039721;28;20398;-77
2021/07/25 07:49:52;;;;;;;6.13;5.57;;;24.50;99.90;;;;;;5055008;28;20401;-76
2021/07/25 07:52:17;;;;;;;5.18;4.68;;;24.70;99.90;;;;;;5055872;28;20394;-78
2021/07/25 07:54:43;;;;;;;5.82;4.78;;;24.90;99.90;;;;;;5036188;28;20923;-79
2021/07/25 07:57:09;;;;;;;5.75;4.78;;;25.20;99.90;;;;;;5037806;28;20382;-78
2021/07/25 07:59:35;;;;;;;5.93;5.33;;;25.30;99.90;;;;;;5040072;28;20486;-79
2021/07/25 08:02:02;;;;;;;5.22;4.80;;;25.30;99.90;;;;;;5036623;28;20409;-81
2021/07/25 08:04:27;;;;;;;7.50;5.40;;;25.50;99.90;;;;;;5042856;28;20387;-80
2021/07/25 08:06:53;;;;;;;5.13;4.55;;;25.70;99.90;;;;;;5055231;28;20470;-80
2021/07/25 08:09:19;;;;;;;6.22;5.03;;;26.00;99.90;;;;;;5018187;28;20413;-79
2021/07/25 08:11:45;;;;;;;5.03;4.50;;;26.20;99.90;;;;;;5026195;28;20394;-80
2021/07/25 08:14:14;;;;;;;6.50;5.37;;;26.30;99.90;;;;;;5051512;28;20401;-80
2021/07/25 08:16:41;;;;;;;5.25;4.72;;;26.20;99.90;;;;;;5032137;28;20413;-81
2021/07/25 08:19:08;;;;;;;4.47;4.07;;;26.10;99.90;;;;;;5032272;28;20495;-79
2021/07/25 08:21:33;;;;;;;4.77;4.33;;;26.10;99.90;;;;;;5022322;28;20441;-78
2021/07/25 08:23:59;;;;;;;5.10;4.28;;;26.10;99.90;;;;;;5039074;28;20449;-80
2021/07/25 08:26:25;;;;;;;4.83;4.37;;;26.30;99.90;;;;;;5053295;28;20385;-80
2021/07/25 08:28:51;;;;;;;5.10;4.60;;;26.20;99.90;;;;;;5034798;28;20397;-80
2021/07/25 08:31:16;;;;;;;4.77;4.37;;;26.30;99.90;;;;;;5030257;28;20419;-80
2021/07/25 08:33:42;;;;;;;4.47;4.07;;;26.30;99.90;;;;;;5016121;28;20464;-81
2021/07/25 08:36:08;;;;;;;5.10;4.63;;;26.20;99.90;;;;;;5048426;28;20397;-82
2021/07/25 08:38:34;;;;;;;4.75;4.25;;;26.30;99.90;;;;;;5015303;28;20409;-79
2021/07/25 08:41:32;;;;;;;4.25;3.85;;;26.60;99.90;;;;;;5036458;28;20400;-81
2021/07/25 08:44:21;;;;;;;4.20;3.80;;;26.90;99.90;;;;;;5053823;28;20444;-80
2021/07/25 08:46:47;;;;;;;4.00;3.65;;;27.10;99.90;;;;;;5036591;28;20393;-81
2021/07/25 08:49:16;;;;;;;4.63;3.77;;;27.30;99.90;;;;;;5032313;28;20476;-80
2021/07/25 08:51:42;;;;;;;4.03;3.72;;;27.40;99.90;;;;;;5028479;28;20403;-80
2021/07/25 08:54:07;;;;;;;4.00;3.70;;;27.10;99.90;;;;;;5024693;28;20408;-79
2021/07/25 08:56:34;;;;;;;4.20;3.80;;;27.00;99.90;;;;;;5049356;28;20901;-81
2021/07/25 08:59:05;;;;;;;3.70;3.40;;;27.10;99.90;;;;;;5031949;28;20472;-79
2021/07/25 09:01:35;;;;;;;3.55;3.25;;;27.30;99.90;;;;;;5010883;28;20400;-79
2021/07/25 09:04:01;;;;;;;3.83;3.53;;;27.50;99.90;;;;;;5028630;28;20399;-80
2021/07/25 09:06:36;;;;;;;3.70;3.40;;;27.70;99.90;;;;;;5027489;28;20765;-81
2021/07/25 09:09:02;;;;;;;3.65;3.35;;;28.00;99.90;;;;;;5050568;28;20429;-81
2021/07/25 09:11:28;;;;;;;4.53;4.13;;;28.20;99.90;;;;;;5014813;28;21111;-79
2021/07/25 09:13:58;;;;;;;4.25;3.95;;;28.50;99.90;;;;;;5011788;28;20407;-81
2021/07/25 09:16:28;;;;;;;3.70;3.35;;;28.70;99.90;;;;;;5048421;28;20401;-81
2021/07/25 09:18:53;;;;;;;3.83;3.53;;;29.00;99.90;;;;;;5049045;28;20393;-79
2021/07/25 09:21:40;;;;;;;3.80;3.25;;;29.00;99.90;;;;;;5046578;28;20432;-80
2021/07/25 09:24:19;;;;;;;3.70;3.40;;;28.70;99.90;;;;;;5052796;28;20408;-79
2021/07/25 09:27:02;;;;;;;4.03;3.20;;;28.90;99.90;;;;;;5026001;28;20405;-80
2021/07/25 09:29:34;;;;;;;3.60;3.30;;;29.40;99.90;;;;;;5056408;28;20461;-81
2021/07/25 09:32:16;;;;;;;4.05;3.60;;;29.80;99.90;;;;;;5019709;28;20876;-80
2021/07/25 09:34:46;;;;;;;4.03;3.20;;;29.70;99.90;;;;;;5017311;28;20452;-81
2021/07/25 09:37:18;;;;;;;3.03;2.83;;;30.00;99.90;;;;;;5031771;28;20496;-80
2021/07/25 09:39:54;;;;;;;3.40;3.10;;;30.40;99.90;;;;;;5017190;28;20426;-80
2021/07/25 09:42:27;;;;;;;3.80;3.50;;;30.70;99.90;;;;;;5034295;28;20421;-81
2021/07/25 09:44:57;;;;;;;3.78;3.22;;;31.00;99.90;;;;;;5042180;28;20849;-81
2021/07/25 09:47:37;;;;;;;3.50;3.20;;;31.30;99.90;;;;;;5038360;28;20796;-81
2021/07/25 09:50:05;;;;;;;3.90;3.50;;;31.30;99.90;;;;;;5048677;28;20420;-80
2021/07/25 09:52:48;;;;;;;3.35;3.05;;;31.70;99.90;;;;;;5020074;28;20404;-80
2021/07/25 09:55:16;;;;;;;4.53;3.72;;;31.70;99.90;;;;;;5013732;28;20404;-80
2021/07/25 09:57:56;;;;;;;3.60;3.30;;;32.10;99.90;;;;;;5014306;28;20399;-81
2021/07/25 10:00:22;;;;;;;3.13;2.92;;;32.00;99.90;;;;;;5007399;28;20412;-81
2021/07/25 10:02:52;;;;;;;3.50;3.20;;;32.10;99.90;;;;;;5034100;28;20410;-81
2021/07/25 10:05:20;;;;;;;4.63;3.17;;;32.30;99.90;;;;;;5024001;28;21249;-80
2021/07/25 10:07:47;;;;;;;3.15;2.88;;;32.50;99.90;;;;;;5049672;28;20566;-79
2021/07/25 10:10:17;;;;;;;3.17;2.88;;;32.60;99.90;;;;;;5031165;28;20421;-80
2021/07/25 10:12:44;;;;;;;3.33;3.10;;;32.80;99.90;;;;;;5048383;28;20399;-79
2021/07/25 10:15:14;;;;;;;3.22;2.90;;;33.10;99.90;;;;;;5028865;28;20397;-80
2021/07/25 10:17:40;;;;;;;3.10;2.90;;;33.40;99.90;;;;;;5053581;28;20781;-79
2021/07/25 10:20:11;;;;;;;3.10;2.85;;;33.60;99.90;;;;;;5033607;28;20435;-78
2021/07/25 10:22:43;;;;;;;3.60;3.30;;;33.80;99.50;;;;;;5025085;28;20490;-79
2021/07/25 10:25:12;;;;;;;3.60;2.80;;;34.10;99.90;;;;;;5042658;28;20393;-79
2021/07/25 10:27:39;;;;;;;3.38;3.08;;;34.70;98.30;;;;;;5028336;28;20393;-79
2021/07/25 10:30:06;;;;;;;3.27;2.97;;;34.60;96.90;;;;;;5066696;28;20398;-79
2021/07/25 10:32:33;;;;;;;2.80;2.60;;;34.30;96.60;;;;;;5044765;28;20402;-77
2021/07/25 10:35:02;;;;;;;3.15;2.92;;;33.90;96.50;;;;;;5010629;28;20405;-79
2021/07/25 10:37:27;;;;;;;3.33;3.03;;;33.70;96.40;;;;;;5018585;28;20405;-79
2021/07/25 10:39:53;;;;;;;2.97;2.70;;;34.10;97.20;;;;;;5047216;28;20450;-79
2021/07/25 10:42:21;;;;;;;3.53;3.05;;;34.60;96.80;;;;;;5027963;28;20408;-79
2021/07/25 10:44:47;;;;;;;3.28;2.97;;;34.90;96.50;;;;;;5032023;28;20447;-79
2021/07/25 10:47:31;;;;;;;3.03;2.83;;;35.20;96.30;;;;;;5054989;28;20473;-80
2021/07/25 10:50:17;;;;;;;2.97;2.78;;;35.20;92.20;;;;;;5059438;28;20878;-79
2021/07/25 10:53:06;;;;;;;3.83;2.95;;;35.50;93.20;;;;;;5013830;28;20390;-79
2021/07/25 10:55:35;;;;;;;3.20;2.92;;;35.80;91.10;;;;;;5043158;28;20416;-79
2021/07/25 10:58:05;;;;;;;3.70;3.30;;;36.00;91.70;;;;;;5050615;28;20396;-80
2021/07/25 11:00:51;;;;;;;3.40;3.10;;;36.00;91.10;;;;;;5041471;28;20412;-78
2021/07/25 11:03:34;;;;;;;2.80;2.60;;;35.90;90.00;;;;;;5028891;28;20409;-78
2021/07/25 11:06:05;;;;;;;5.57;2.77;;;35.90;90.70;;;;;;5043188;28;20397;-78
2021/07/25 11:08:32;;;;;;;3.53;3.22;;;36.30;90.10;;;;;;5043652;28;20413;-78
2021/07/25 11:11:00;;;;;;;3.63;3.03;;;36.50;87.80;;;;;;5037852;28;20409;-77
2021/07/25 11:13:44;;;;;;;3.58;3.25;;;36.60;86.90;;;;;;5036882;28;20468;-77
2021/07/25 11:16:29;;;;;;;4.60;3.53;;;36.60;85.30;;;;;;5027924;28;20508;-78
2021/07/25 11:18:56;;;;;;;3.57;3.27;;;36.60;84.40;;;;;;5042759;28;20420;-78
2021/07/25 11:21:36;;;;;;;3.45;3.25;;;36.50;85.60;;;;;;5047122;28;20438;-79
2021/07/25 11:24:23;;;;;;;4.25;3.40;;;36.60;84.40;;;;;;5042538;28;20401;-79
2021/07/25 11:26:52;;;;;;;4.15;3.80;;;36.80;83.90;;;;;;5056249;28;20398;-77
2021/07/25 11:29:41;;;;;;;3.70;3.40;;;36.70;78.30;;;;;;5019458;28;20426;-79
2021/07/25 11:32:32;;;;;;;3.80;3.50;;;36.80;81.70;;;;;;5032205;28;20397;-78
2021/07/25 11:35:04;;;;;;;3.58;3.28;;;37.10;84.00;;;;;;5040134;28;20393;-78
2021/07/25 11:37:40;;;;;;;4.68;3.22;;;37.60;83.60;;;;;;5031522;28;20889;-77
2021/07/25 11:40:09;;;;;;;4.15;3.67;;;37.60;82.00;;;;;;5028790;28;20404;-76
2021/07/25 11:42:36;;;;;;;4.10;3.47;;;37.70;78.00;;;;;;5044027;28;20416;-76
2021/07/25 11:45:05;;;;;;;3.88;3.47;;;38.20;81.80;;;;;;5029845;28;20393;-77
2021/07/25 11:47:32;;;;;;;3.80;3.50;;;38.10;73.50;;;;;;5042392;28;20925;-76
2021/07/25 11:49:57;;;;;;;4.17;3.77;;;37.80;75.60;;;;;;5012312;28;20536;-76
2021/07/25 11:52:28;;;;;;;3.53;3.30;;;38.10;76.90;;;;;;5028729;28;20492;-78
2021/07/25 11:54:54;;;;;;;4.35;3.95;;;37.70;70.80;;;;;;5035083;28;20385;-77
2021/07/25 11:57:29;;;;;;;5.20;3.83;;;37.60;77.10;;;;;;5047711;28;20517;-77
2021/07/25 12:00:01;;;;;;;5.63;3.87;;;37.70;76.60;;;;;;5030879;28;20407;-77
2021/07/25 12:02:28;;;;;;;3.88;3.50;;;37.60;72.40;;;;;;5048724;28;20422;-76
2021/07/25 12:04:55;;;;;;;4.82;3.42;;;37.50;74.90;;;;;;5034912;28;20464;-77
2021/07/25 12:07:21;;;;;;;3.75;3.45;;;37.90;76.90;;;;;;5031952;28;20404;-78
2021/07/25 12:09:48;;;;;;;4.03;3.63;;;38.10;77.30;;;;;;5027412;28;20394;-77
2021/07/25 12:12:18;;;;;;;5.57;3.85;;;38.60;77.30;;;;;;5045115;28;20397;-78
2021/07/25 12:14:51;;;;;;;4.07;3.78;;;38.90;75.00;;;;;;4999032;28;20897;-77
2021/07/25 12:17:38;;;;;;;4.43;4.03;;;38.80;72.80;;;;;;5046588;28;20397;-76
2021/07/25 12:20:14;;;;;;;3.90;3.53;;;38.70;72.00;;;;;;5042084;28;20413;-77
2021/07/25 12:23:08;;;;;;;5.07;4.10;;;38.70;77.30;;;;;;5036051;28;20406;-77
2021/07/25 12:25:38;;;;;;;4.00;3.70;;;38.40;69.30;;;;;;5033792;28;20466;-77
2021/07/25 12:28:05;;;;;;;3.92;3.53;;;38.60;76.00;;;;;;5008113;28;21394;-77
2021/07/25 12:30:43;;;;;;;4.22;3.90;;;38.70;74.60;;;;;;5027838;28;20475;-77
2021/07/25 12:33:10;;;;;;;3.90;3.60;;;38.50;70.00;;;;;;5041304;28;20834;-77
2021/07/25 12:35:35;;;;;;;4.40;4.00;;;38.60;73.50;;;;;;5024992;28;20414;-77
2021/07/25 12:38:02;;;;;;;3.77;3.47;;;38.60;74.00;;;;;;5028211;28;20964;-78
2021/07/25 12:40:31;;;;;;;3.80;3.50;;;38.70;68.80;;;;;;5028906;28;20414;-78
2021/07/25 12:42:57;;;;;;;3.70;3.40;;;38.20;71.30;;;;;;5047024;28;20405;-76
2021/07/25 12:45:32;;;;;;;7.40;4.63;;;38.40;70.80;;;;;;5045636;28;20402;-76
2021/07/25 12:48:13;;;;;;;4.37;3.97;;;38.10;69.80;;;;;;5032464;28;20395;-78
2021/07/25 12:50:59;;;;;;;6.47;4.38;;;38.10;68.30;;;;;;5047464;28;20461;-77
2021/07/25 12:53:39;;;;;;;4.40;4.00;;;38.10;71.40;;;;;;5031566;28;20410;-77
2021/07/25 12:56:15;;;;;;;4.37;3.97;;;38.30;70.70;;;;;;5026653;28;20409;-77